sensor_id;sensor_type;location;lat;lon;timestamp;P1;durP1;ratioP1;P2;durP2;ratioP2
41623;SDS011;27319;50.306;18.926;2022-07-25T00:00:56;5.55;;;4.13;;
41623;SDS011;27319;50.306;18.926;2022-07-25T00:03:57;5.10;;;3.53;;
41623;SDS011;27319;50.306;18.926;2022-07-25T00:06:59;8.00;;;4.03;;
41623;SDS011;27319;50.306;18.926;2022-07-25T00:09:59;7.07;;;4.10;;
41623;SDS011;27319;50.306;18.926;2022-07-25T00:13:00;5.25;;;3.50;;
41623;SDS011;27319;50.306;18.926;2022-07-25T00:17:00;7.50;;;3.40;;
41623;SDS011;27319;50.306;18.926;2022-07-25T00:21:01;12.30;;;3.55;;
41623;SDS011;27319;50.306;18.926;2022-07-25T00:25:02;7.32;;;3.50;;
41623;SDS011;27319;50.306;18.926;2022-07-25T00:29:03;5.07;;;3.25;;
41623;SDS011;27319;50.306;18.926;2022-07-25T00:33:03;5.53;;;3.63;;
41623;SDS011;27319;50.306;18.926;2022-07-25T00:37:04;7.28;;;3.83;;
41623;SDS011;27319;50.306;18.926;2022-07-25T00:40:45;6.82;;;3.63;;
41623;SDS011;27319;50.306;18.926;2022-07-25T00:43:46;6.53;;;3.55;;
41623;SDS011;27319;50.306;18.926;2022-07-25T00:46:46;4.43;;;3.83;;
41623;SDS011;27319;50.306;18.926;2022-07-25T00:49:48;9.00;;;3.97;;
41623;SDS011;27319;50.306;18.926;2022-07-25T00:52:48;7.05;;;4.45;;
41623;SDS011;27319;50.306;18.926;2022-07-25T00:55:50;5.70;;;3.45;;
41623;SDS011;27319;50.306;18.926;2022-07-25T00:58:51;7.28;;;4.03;;
41623;SDS011;27319;50.306;18.926;2022-07-25T01:01:52;7.50;;;4.47;;
41623;SDS011;27319;50.306;18.926;2022-07-25T01:04:53;7.53;;;3.78;;
41623;SDS011;27319;50.306;18.926;2022-07-25T01:07:56;5.53;;;3.80;;
41623;SDS011;27319;50.306;18.926;2022-07-25T01:10:57;4.95;;;3.60;;
41623;SDS011;27319;50.306;18.926;2022-07-25T01:13:58;8.38;;;3.80;;
41623;SDS011;27319;50.306;18.926;2022-07-25T01:16:59;4.95;;;3.50;;
41623;SDS011;27319;50.306;18.926;2022-07-25T01:20:00;6.85;;;3.45;;
41623;SDS011;27319;50.306;18.926;2022-07-25T01:23:00;9.43;;;4.18;;
41623;SDS011;27319;50.306;18.926;2022-07-25T01:26:02;5.75;;;3.85;;
41623;SDS011;27319;50.306;18.926;2022-07-25T01:29:03;5.65;;;3.58;;
41623;SDS011;27319;50.306;18.926;2022-07-25T01:32:04;6.97;;;4.22;;
41623;SDS011;27319;50.306;18.926;2022-07-25T01:35:06;4.50;;;3.40;;
41623;SDS011;27319;50.306;18.926;2022-07-25T01:38:08;5.15;;;3.80;;
41623;SDS011;27319;50.306;18.926;2022-07-25T01:41:08;5.50;;;3.03;;
41623;SDS011;27319;50.306;18.926;2022-07-25T01:44:09;7.63;;;3.60;;
41623;SDS011;27319;50.306;18.926;2022-07-25T01:47:10;10.63;;;3.70;;
41623;SDS011;27319;50.306;18.926;2022-07-25T01:50:11;5.88;;;3.75;;
41623;SDS011;27319;50.306;18.926;2022-07-25T01:53:12;6.18;;;4.05;;
41623;SDS011;27319;50.306;18.926;2022-07-25T01:56:13;8.32;;;4.38;;
41623;SDS011;27319;50.306;18.926;2022-07-25T01:59:14;6.32;;;4.00;;
41623;SDS011;27319;50.306;18.926;2022-07-25T02:02:15;5.18;;;3.60;;
41623;SDS011;27319;50.306;18.926;2022-07-25T02:05:16;5.55;;;3.70;;
41623;SDS011;27319;50.306;18.926;2022-07-25T02:08:17;6.13;;;4.38;;
41623;SDS011;27319;50.306;18.926;2022-07-25T02:11:17;7.35;;;3.72;;
41623;SDS011;27319;50.306;18.926;2022-07-25T02:14:19;7.07;;;4.15;;
41623;SDS011;27319;50.306;18.926;2022-07-25T02:17:19;6.45;;;4.78;;
41623;SDS011;27319;50.306;18.926;2022-07-25T02:20:20;7.00;;;4.72;;
41623;SDS011;27319;50.306;18.926;2022-07-25T02:23:21;8.38;;;5.43;;
41623;SDS011;27319;50.306;18.926;2022-07-25T02:26:22;9.90;;;5.85;;
41623;SDS011;27319;50.306;18.926;2022-07-25T02:29:23;13.70;;;5.57;;
41623;SDS011;27319;50.306;18.926;2022-07-25T02:32:24;9.40;;;6.05;;
41623;SDS011;27319;50.306;18.926;2022-07-25T02:35:25;9.07;;;6.03;;
41623;SDS011;27319;50.306;18.926;2022-07-25T02:38:26;10.85;;;6.40;;
41623;SDS011;27319;50.306;18.926;2022-07-25T02:41:27;10.50;;;6.38;;
41623;SDS011;27319;50.306;18.926;2022-07-25T02:44:28;9.45;;;5.82;;
41623;SDS011;27319;50.306;18.926;2022-07-25T02:47:28;12.32;;;6.70;;
41623;SDS011;27319;50.306;18.926;2022-07-25T02:50:30;8.40;;;5.60;;
41623;SDS011;27319;50.306;18.926;2022-07-25T02:53:30;8.85;;;4.78;;
41623;SDS011;27319;50.306;18.926;2022-07-25T02:56:31;7.75;;;5.35;;
41623;SDS011;27319;50.306;18.926;2022-07-25T02:59:32;7.43;;;5.05;;
41623;SDS011;27319;50.306;18.926;2022-07-25T03:02:33;8.68;;;5.18;;
41623;SDS011;27319;50.306;18.926;2022-07-25T03:05:34;8.45;;;5.70;;
41623;SDS011;27319;50.306;18.926;2022-07-25T03:08:35;7.13;;;5.03;;
41623;SDS011;27319;50.306;18.926;2022-07-25T03:11:36;11.15;;;5.07;;
41623;SDS011;27319;50.306;18.926;2022-07-25T03:14:37;12.93;;;5.60;;
41623;SDS011;27319;50.306;18.926;2022-07-25T03:17:37;9.20;;;5.95;;
41623;SDS011;27319;50.306;18.926;2022-07-25T03:20:39;9.38;;;6.20;;
41623;SDS011;27319;50.306;18.926;2022-07-25T03:23:39;9.93;;;5.97;;
41623;SDS011;27319;50.306;18.926;2022-07-25T03:26:41;9.20;;;5.22;;
41623;SDS011;27319;50.306;18.926;2022-07-25T03:29:41;8.15;;;5.47;;
41623;SDS011;27319;50.306;18.926;2022-07-25T03:32:42;9.60;;;5.45;;
41623;SDS011;27319;50.306;18.926;2022-07-25T03:35:44;11.13;;;5.97;;
41623;SDS011;27319;50.306;18.926;2022-07-25T03:38:45;10.18;;;5.07;;
41623;SDS011;27319;50.306;18.926;2022-07-25T03:41:46;9.45;;;5.28;;
41623;SDS011;27319;50.306;18.926;2022-07-25T03:44:47;8.52;;;5.53;;
41623;SDS011;27319;50.306;18.926;2022-07-25T03:47:48;7.53;;;4.65;;
41623;SDS011;27319;50.306;18.926;2022-07-25T03:50:49;10.52;;;6.13;;
41623;SDS011;27319;50.306;18.926;2022-07-25T03:53:49;10.10;;;5.68;;
41623;SDS011;27319;50.306;18.926;2022-07-25T03:57:03;11.82;;;5.18;;
41623;SDS011;27319;50.306;18.926;2022-07-25T04:00:05;11.45;;;5.95;;
41623;SDS011;27319;50.306;18.926;2022-07-25T04:03:08;15.27;;;5.50;;
41623;SDS011;27319;50.306;18.926;2022-07-25T04:06:09;8.30;;;5.57;;
41623;SDS011;27319;50.306;18.926;2022-07-25T04:09:10;12.85;;;5.90;;
41623;SDS011;27319;50.306;18.926;2022-07-25T04:12:12;10.80;;;5.43;;
41623;SDS011;27319;50.306;18.926;2022-07-25T04:15:13;10.75;;;5.85;;
41623;SDS011;27319;50.306;18.926;2022-07-25T04:18:13;16.85;;;6.88;;
41623;SDS011;27319;50.306;18.926;2022-07-25T04:21:15;8.40;;;5.53;;
41623;SDS011;27319;50.306;18.926;2022-07-25T04:24:15;10.32;;;5.45;;
41623;SDS011;27319;50.306;18.926;2022-07-25T04:27:16;11.65;;;5.35;;
41623;SDS011;27319;50.306;18.926;2022-07-25T04:30:17;9.38;;;5.53;;
41623;SDS011;27319;50.306;18.926;2022-07-25T04:33:18;11.20;;;5.78;;
41623;SDS011;27319;50.306;18.926;2022-07-25T04:36:20;13.27;;;6.00;;
41623;SDS011;27319;50.306;18.926;2022-07-25T04:39:21;8.68;;;5.63;;
41623;SDS011;27319;50.306;18.926;2022-07-25T04:42:21;10.18;;;5.10;;
41623;SDS011;27319;50.306;18.926;2022-07-25T04:45:23;11.45;;;5.60;;
41623;SDS011;27319;50.306;18.926;2022-07-25T04:48:24;8.02;;;5.60;;
41623;SDS011;27319;50.306;18.926;2022-07-25T04:51:25;11.55;;;6.20;;
41623;SDS011;27319;50.306;18.926;2022-07-25T04:54:25;9.07;;;4.80;;
41623;SDS011;27319;50.306;18.926;2022-07-25T04:57:26;11.90;;;5.43;;
41623;SDS011;27319;50.306;18.926;2022-07-25T05:00:27;9.05;;;4.80;;
41623;SDS011;27319;50.306;18.926;2022-07-25T05:03:28;7.63;;;4.47;;
41623;SDS011;27319;50.306;18.926;2022-07-25T05:06:29;8.60;;;5.20;;
41623;SDS011;27319;50.306;18.926;2022-07-25T05:09:30;6.25;;;4.55;;
41623;SDS011;27319;50.306;18.926;2022-07-25T05:12:31;7.43;;;4.43;;
41623;SDS011;27319;50.306;18.926;2022-07-25T05:15:32;8.63;;;4.18;;
41623;SDS011;27319;50.306;18.926;2022-07-25T05:18:33;9.88;;;4.13;;
41623;SDS011;27319;50.306;18.926;2022-07-25T05:21:34;8.15;;;4.57;;
41623;SDS011;27319;50.306;18.926;2022-07-25T05:24:44;6.70;;;4.00;;
41623;SDS011;27319;50.306;18.926;2022-07-25T05:27:54;5.05;;;3.55;;
41623;SDS011;27319;50.306;18.926;2022-07-25T05:31:00;10.77;;;4.40;;
41623;SDS011;27319;50.306;18.926;2022-07-25T05:34:01;7.82;;;3.70;;
41623;SDS011;27319;50.306;18.926;2022-07-25T05:37:02;6.30;;;3.55;;
41623;SDS011;27319;50.306;18.926;2022-07-25T05:40:04;6.68;;;4.32;;
41623;SDS011;27319;50.306;18.926;2022-07-25T05:43:06;9.60;;;3.67;;
41623;SDS011;27319;50.306;18.926;2022-07-25T05:46:07;6.45;;;3.85;;
41623;SDS011;27319;50.306;18.926;2022-07-25T05:49:07;6.47;;;3.33;;
41623;SDS011;27319;50.306;18.926;2022-07-25T05:52:08;7.47;;;3.45;;
41623;SDS011;27319;50.306;18.926;2022-07-25T05:55:09;9.27;;;3.88;;
41623;SDS011;27319;50.306;18.926;2022-07-25T05:58:11;10.02;;;4.35;;
41623;SDS011;27319;50.306;18.926;2022-07-25T06:01:12;12.20;;;4.78;;
41623;SDS011;27319;50.306;18.926;2022-07-25T06:04:14;10.00;;;4.60;;
41623;SDS011;27319;50.306;18.926;2022-07-25T06:07:15;11.45;;;4.70;;
41623;SDS011;27319;50.306;18.926;2022-07-25T06:10:16;7.97;;;3.75;;
41623;SDS011;27319;50.306;18.926;2022-07-25T06:13:17;8.25;;;3.42;;
41623;SDS011;27319;50.306;18.926;2022-07-25T06:16:18;10.02;;;3.63;;
41623;SDS011;27319;50.306;18.926;2022-07-25T06:19:19;4.95;;;3.08;;
41623;SDS011;27319;50.306;18.926;2022-07-25T06:22:20;7.72;;;3.13;;
41623;SDS011;27319;50.306;18.926;2022-07-25T06:25:21;6.68;;;3.20;;
41623;SDS011;27319;50.306;18.926;2022-07-25T06:28:22;12.77;;;3.25;;
41623;SDS011;27319;50.306;18.926;2022-07-25T06:31:22;8.13;;;2.95;;
41623;SDS011;27319;50.306;18.926;2022-07-25T06:34:24;7.05;;;2.95;;
41623;SDS011;27319;50.306;18.926;2022-07-25T06:37:24;4.65;;;2.50;;
41623;SDS011;27319;50.306;18.926;2022-07-25T06:40:25;5.30;;;2.63;;
41623;SDS011;27319;50.306;18.926;2022-07-25T06:43:26;10.50;;;2.70;;
41623;SDS011;27319;50.306;18.926;2022-07-25T06:46:27;7.60;;;2.58;;
41623;SDS011;27319;50.306;18.926;2022-07-25T06:49:30;3.08;;;2.42;;
41623;SDS011;27319;50.306;18.926;2022-07-25T06:52:31;6.57;;;2.33;;
41623;SDS011;27319;50.306;18.926;2022-07-25T06:55:33;5.75;;;2.78;;
41623;SDS011;27319;50.306;18.926;2022-07-25T06:58:37;6.95;;;3.30;;
41623;SDS011;27319;50.306;18.926;2022-07-25T07:01:37;6.45;;;2.53;;
41623;SDS011;27319;50.306;18.926;2022-07-25T07:04:39;5.30;;;3.00;;
41623;SDS011;27319;50.306;18.926;2022-07-25T07:07:39;4.75;;;2.95;;
41623;SDS011;27319;50.306;18.926;2022-07-25T07:10:40;6.05;;;2.90;;
41623;SDS011;27319;50.306;18.926;2022-07-25T07:13:41;7.22;;;3.15;;
41623;SDS011;27319;50.306;18.926;2022-07-25T07:16:43;6.18;;;2.58;;
41623;SDS011;27319;50.306;18.926;2022-07-25T07:19:46;5.00;;;2.45;;
41623;SDS011;27319;50.306;18.926;2022-07-25T07:22:52;7.82;;;2.97;;
41623;SDS011;27319;50.306;18.926;2022-07-25T07:25:56;5.30;;;2.80;;
41623;SDS011;27319;50.306;18.926;2022-07-25T07:28:57;5.00;;;2.30;;
41623;SDS011;27319;50.306;18.926;2022-07-25T07:31:57;4.38;;;2.42;;
41623;SDS011;27319;50.306;18.926;2022-07-25T07:34:59;6.40;;;2.50;;
41623;SDS011;27319;50.306;18.926;2022-07-25T07:37:59;6.40;;;2.45;;
41623;SDS011;27319;50.306;18.926;2022-07-25T07:41:00;5.85;;;2.33;;
41623;SDS011;27319;50.306;18.926;2022-07-25T07:44:01;2.78;;;2.08;;
41623;SDS011;27319;50.306;18.926;2022-07-25T07:47:02;5.75;;;2.40;;
41623;SDS011;27319;50.306;18.926;2022-07-25T07:50:03;7.38;;;2.35;;
41623;SDS011;27319;50.306;18.926;2022-07-25T07:53:06;4.15;;;2.20;;
41623;SDS011;27319;50.306;18.926;2022-07-25T07:56:09;4.35;;;2.08;;
41623;SDS011;27319;50.306;18.926;2022-07-25T07:59:13;2.95;;;2.17;;
41623;SDS011;27319;50.306;18.926;2022-07-25T08:02:14;3.40;;;2.08;;
41623;SDS011;27319;50.306;18.926;2022-07-25T08:05:25;3.97;;;1.90;;
41623;SDS011;27319;50.306;18.926;2022-07-25T08:08:34;2.78;;;2.15;;
41623;SDS011;27319;50.306;18.926;2022-07-25T08:11:35;3.60;;;2.30;;
41623;SDS011;27319;50.306;18.926;2022-07-25T08:14:38;4.18;;;1.90;;
41623;SDS011;27319;50.306;18.926;2022-07-25T08:17:42;7.53;;;2.17;;
41623;SDS011;27319;50.306;18.926;2022-07-25T08:20:47;4.32;;;2.05;;
41623;SDS011;27319;50.306;18.926;2022-07-25T08:23:49;2.70;;;1.83;;
41623;SDS011;27319;50.306;18.926;2022-07-25T08:26:50;3.92;;;1.83;;
41623;SDS011;27319;50.306;18.926;2022-07-25T08:29:51;3.83;;;1.80;;
41623;SDS011;27319;50.306;18.926;2022-07-25T08:32:53;3.47;;;1.60;;
41623;SDS011;27319;50.306;18.926;2022-07-25T08:35:59;5.32;;;2.10;;
41623;SDS011;27319;50.306;18.926;2022-07-25T08:39:00;4.82;;;1.88;;
41623;SDS011;27319;50.306;18.926;2022-07-25T08:42:01;4.97;;;2.55;;
41623;SDS011;27319;50.306;18.926;2022-07-25T08:45:03;2.92;;;1.95;;
41623;SDS011;27319;50.306;18.926;2022-07-25T08:48:06;6.75;;;2.20;;
41623;SDS011;27319;50.306;18.926;2022-07-25T08:51:10;5.22;;;2.22;;
41623;SDS011;27319;50.306;18.926;2022-07-25T08:54:14;5.05;;;2.20;;
41623;SDS011;27319;50.306;18.926;2022-07-25T08:57:16;2.47;;;2.10;;
41623;SDS011;27319;50.306;18.926;2022-07-25T09:00:19;3.75;;;2.17;;
41623;SDS011;27319;50.306;18.926;2022-07-25T09:03:25;3.53;;;1.88;;
41623;SDS011;27319;50.306;18.926;2022-07-25T09:06:28;4.18;;;2.00;;
41623;SDS011;27319;50.306;18.926;2022-07-25T09:09:33;8.93;;;2.30;;
41623;SDS011;27319;50.306;18.926;2022-07-25T09:12:39;2.42;;;1.77;;
41623;SDS011;27319;50.306;18.926;2022-07-25T09:15:53;4.60;;;1.95;;
41623;SDS011;27319;50.306;18.926;2022-07-25T09:19:12;3.40;;;1.83;;
41623;SDS011;27319;50.306;18.926;2022-07-25T09:22:14;4.75;;;2.10;;
41623;SDS011;27319;50.306;18.926;2022-07-25T09:25:34;4.95;;;1.92;;
41623;SDS011;27319;50.306;18.926;2022-07-25T09:28:44;3.78;;;1.90;;
41623;SDS011;27319;50.306;18.926;2022-07-25T09:31:47;2.90;;;1.70;;
41623;SDS011;27319;50.306;18.926;2022-07-25T09:34:48;5.43;;;2.10;;
41623;SDS011;27319;50.306;18.926;2022-07-25T09:37:50;3.50;;;2.20;;
41623;SDS011;27319;50.306;18.926;2022-07-25T09:40:55;5.07;;;2.00;;
41623;SDS011;27319;50.306;18.926;2022-07-25T09:44:01;3.83;;;2.97;;
41623;SDS011;27319;50.306;18.926;2022-07-25T09:47:09;4.70;;;2.20;;
41623;SDS011;27319;50.306;18.926;2022-07-25T09:50:11;2.88;;;1.90;;
41623;SDS011;27319;50.306;18.926;2022-07-25T09:53:12;2.83;;;1.95;;
41623;SDS011;27319;50.306;18.926;2022-07-25T09:56:14;3.28;;;1.88;;
41623;SDS011;27319;50.306;18.926;2022-07-25T09:59:14;5.32;;;1.88;;
41623;SDS011;27319;50.306;18.926;2022-07-25T10:05:33;3.05;;;1.30;;
41623;SDS011;27319;50.306;18.926;2022-07-25T10:08:47;2.90;;;1.80;;
41623;SDS011;27319;50.306;18.926;2022-07-25T10:15:10;2.08;;;1.73;;
41623;SDS011;27319;50.306;18.926;2022-07-25T10:18:13;3.08;;;1.70;;
41623;SDS011;27319;50.306;18.926;2022-07-25T10:21:15;2.97;;;1.40;;
41623;SDS011;27319;50.306;18.926;2022-07-25T10:24:16;4.60;;;2.58;;
41623;SDS011;27319;50.306;18.926;2022-07-25T10:27:21;2.45;;;1.70;;
41623;SDS011;27319;50.306;18.926;2022-07-25T10:30:27;2.10;;;1.48;;
41623;SDS011;27319;50.306;18.926;2022-07-25T10:33:39;3.42;;;1.63;;
41623;SDS011;27319;50.306;18.926;2022-07-25T10:36:49;29.05;;;7.13;;
41623;SDS011;27319;50.306;18.926;2022-07-25T10:39:58;3.53;;;1.52;;
41623;SDS011;27319;50.306;18.926;2022-07-25T10:43:06;4.47;;;2.60;;
41623;SDS011;27319;50.306;18.926;2022-07-25T10:46:21;5.15;;;2.13;;
41623;SDS011;27319;50.306;18.926;2022-07-25T10:49:26;3.47;;;1.70;;
41623;SDS011;27319;50.306;18.926;2022-07-25T10:52:39;3.10;;;1.60;;
41623;SDS011;27319;50.306;18.926;2022-07-25T10:55:44;5.18;;;3.22;;
41623;SDS011;27319;50.306;18.926;2022-07-25T10:59:00;4.07;;;2.20;;
41623;SDS011;27319;50.306;18.926;2022-07-25T11:02:05;3.00;;;1.60;;
41623;SDS011;27319;50.306;18.926;2022-07-25T11:05:07;3.83;;;1.60;;
41623;SDS011;27319;50.306;18.926;2022-07-25T11:08:09;5.47;;;1.80;;
41623;SDS011;27319;50.306;18.926;2022-07-25T11:11:10;3.33;;;2.03;;
41623;SDS011;27319;50.306;18.926;2022-07-25T11:14:15;6.75;;;1.90;;
41623;SDS011;27319;50.306;18.926;2022-07-25T11:17:21;2.40;;;1.60;;
41623;SDS011;27319;50.306;18.926;2022-07-25T11:20:23;1.83;;;1.50;;
41623;SDS011;27319;50.306;18.926;2022-07-25T11:23:24;4.97;;;1.73;;
41623;SDS011;27319;50.306;18.926;2022-07-25T11:26:24;8.50;;;3.72;;
41623;SDS011;27319;50.306;18.926;2022-07-25T11:29:25;2.25;;;1.65;;
41623;SDS011;27319;50.306;18.926;2022-07-25T11:32:26;9.68;;;1.80;;
41623;SDS011;27319;50.306;18.926;2022-07-25T11:35:40;3.03;;;2.15;;
41623;SDS011;27319;50.306;18.926;2022-07-25T11:38:42;5.20;;;2.75;;
41623;SDS011;27319;50.306;18.926;2022-07-25T11:41:57;5.75;;;4.75;;
41623;SDS011;27319;50.306;18.926;2022-07-25T11:44:59;2.50;;;1.95;;
41623;SDS011;27319;50.306;18.926;2022-07-25T11:48:13;2.80;;;1.48;;
41623;SDS011;27319;50.306;18.926;2022-07-25T11:51:17;1.75;;;1.33;;
41623;SDS011;27319;50.306;18.926;2022-07-25T11:54:19;4.68;;;1.77;;
41623;SDS011;27319;50.306;18.926;2022-07-25T11:57:20;2.78;;;1.55;;
41623;SDS011;27319;50.306;18.926;2022-07-25T12:00:22;3.40;;;1.55;;
41623;SDS011;27319;50.306;18.926;2022-07-25T12:03:23;6.43;;;2.72;;
41623;SDS011;27319;50.306;18.926;2022-07-25T12:06:27;2.90;;;1.83;;
41623;SDS011;27319;50.306;18.926;2022-07-25T12:09:28;5.72;;;2.00;;
41623;SDS011;27319;50.306;18.926;2022-07-25T12:12:39;6.35;;;1.80;;
41623;SDS011;27319;50.306;18.926;2022-07-25T12:15:41;2.50;;;1.65;;
41623;SDS011;27319;50.306;18.926;2022-07-25T12:18:42;6.03;;;1.80;;
41623;SDS011;27319;50.306;18.926;2022-07-25T12:21:43;2.65;;;1.65;;
41623;SDS011;27319;50.306;18.926;2022-07-25T12:24:45;3.53;;;2.33;;
41623;SDS011;27319;50.306;18.926;2022-07-25T12:27:45;2.85;;;2.15;;
41623;SDS011;27319;50.306;18.926;2022-07-25T12:30:47;2.30;;;1.80;;
41623;SDS011;27319;50.306;18.926;2022-07-25T12:33:49;1.80;;;1.50;;
41623;SDS011;27319;50.306;18.926;2022-07-25T12:36:50;2.40;;;1.60;;
41623;SDS011;27319;50.306;18.926;2022-07-25T12:39:52;3.78;;;1.63;;
41623;SDS011;27319;50.306;18.926;2022-07-25T12:42:53;2.65;;;1.40;;
41623;SDS011;27319;50.306;18.926;2022-07-25T12:45:54;6.25;;;1.90;;
41623;SDS011;27319;50.306;18.926;2022-07-25T12:48:55;2.95;;;1.58;;
41623;SDS011;27319;50.306;18.926;2022-07-25T12:51:56;3.78;;;1.60;;
41623;SDS011;27319;50.306;18.926;2022-07-25T12:54:57;3.20;;;1.60;;
41623;SDS011;27319;50.306;18.926;2022-07-25T12:57:58;10.10;;;2.55;;
41623;SDS011;27319;50.306;18.926;2022-07-25T13:00:59;7.97;;;2.53;;
41623;SDS011;27319;50.306;18.926;2022-07-25T13:04:00;3.97;;;1.90;;
41623;SDS011;27319;50.306;18.926;2022-07-25T13:07:01;5.78;;;1.98;;
41623;SDS011;27319;50.306;18.926;2022-07-25T13:10:03;3.95;;;1.83;;
41623;SDS011;27319;50.306;18.926;2022-07-25T13:13:04;2.35;;;1.50;;
41623;SDS011;27319;50.306;18.926;2022-07-25T13:16:05;2.28;;;1.70;;
41623;SDS011;27319;50.306;18.926;2022-07-25T13:19:07;3.95;;;1.58;;
41623;SDS011;27319;50.306;18.926;2022-07-25T13:22:07;2.13;;;1.55;;
41623;SDS011;27319;50.306;18.926;2022-07-25T13:25:08;5.75;;;1.60;;
41623;SDS011;27319;50.306;18.926;2022-07-25T13:28:09;3.20;;;1.80;;
41623;SDS011;27319;50.306;18.926;2022-07-25T13:31:10;2.67;;;1.40;;
41623;SDS011;27319;50.306;18.926;2022-07-25T13:34:10;6.30;;;1.80;;
41623;SDS011;27319;50.306;18.926;2022-07-25T13:37:12;4.32;;;1.67;;
41623;SDS011;27319;50.306;18.926;2022-07-25T13:40:12;5.85;;;1.65;;
41623;SDS011;27319;50.306;18.926;2022-07-25T13:43:14;5.93;;;1.40;;
41623;SDS011;27319;50.306;18.926;2022-07-25T13:46:15;3.65;;;1.42;;
41623;SDS011;27319;50.306;18.926;2022-07-25T13:49:17;2.22;;;1.45;;
41623;SDS011;27319;50.306;18.926;2022-07-25T13:52:17;2.22;;;1.25;;
41623;SDS011;27319;50.306;18.926;2022-07-25T13:55:18;4.70;;;1.60;;
41623;SDS011;27319;50.306;18.926;2022-07-25T13:58:20;2.22;;;1.70;;
41623;SDS011;27319;50.306;18.926;2022-07-25T14:01:22;4.85;;;1.70;;
41623;SDS011;27319;50.306;18.926;2022-07-25T14:04:24;3.50;;;1.80;;
41623;SDS011;27319;50.306;18.926;2022-07-25T14:07:25;2.53;;;1.35;;
41623;SDS011;27319;50.306;18.926;2022-07-25T14:10:29;2.72;;;1.35;;
41623;SDS011;27319;50.306;18.926;2022-07-25T14:13:30;1.50;;;1.20;;
41623;SDS011;27319;50.306;18.926;2022-07-25T14:16:32;2.53;;;1.65;;
41623;SDS011;27319;50.306;18.926;2022-07-25T14:19:33;3.63;;;1.77;;
41623;SDS011;27319;50.306;18.926;2022-07-25T14:22:34;9.05;;;2.53;;
41623;SDS011;27319;50.306;18.926;2022-07-25T14:25:36;6.35;;;2.40;;
41623;SDS011;27319;50.306;18.926;2022-07-25T14:28:37;4.95;;;1.80;;
41623;SDS011;27319;50.306;18.926;2022-07-25T14:31:38;3.70;;;1.30;;
41623;SDS011;27319;50.306;18.926;2022-07-25T14:34:39;8.90;;;2.38;;
41623;SDS011;27319;50.306;18.926;2022-07-25T14:37:40;1.23;;;1.10;;
41623;SDS011;27319;50.306;18.926;2022-07-25T14:40:41;4.25;;;1.92;;
41623;SDS011;27319;50.306;18.926;2022-07-25T14:43:43;4.25;;;1.40;;
41623;SDS011;27319;50.306;18.926;2022-07-25T14:46:43;3.70;;;1.08;;
41623;SDS011;27319;50.306;18.926;2022-07-25T14:49:44;2.55;;;1.45;;
41623;SDS011;27319;50.306;18.926;2022-07-25T14:52:45;4.53;;;1.35;;
41623;SDS011;27319;50.306;18.926;2022-07-25T14:55:46;1.90;;;1.13;;
41623;SDS011;27319;50.306;18.926;2022-07-25T14:58:50;2.10;;;1.35;;
41623;SDS011;27319;50.306;18.926;2022-07-25T15:01:51;1.70;;;1.40;;
41623;SDS011;27319;50.306;18.926;2022-07-25T15:04:52;5.30;;;2.97;;
41623;SDS011;27319;50.306;18.926;2022-07-25T15:08:01;3.25;;;1.35;;
41623;SDS011;27319;50.306;18.926;2022-07-25T15:11:01;2.80;;;1.38;;
41623;SDS011;27319;50.306;18.926;2022-07-25T15:14:05;1.70;;;1.33;;
41623;SDS011;27319;50.306;18.926;2022-07-25T15:17:06;7.78;;;1.75;;
41623;SDS011;27319;50.306;18.926;2022-07-25T15:20:07;7.60;;;1.75;;
41623;SDS011;27319;50.306;18.926;2022-07-25T15:23:09;3.85;;;1.40;;
41623;SDS011;27319;50.306;18.926;2022-07-25T15:26:13;3.20;;;1.60;;
41623;SDS011;27319;50.306;18.926;2022-07-25T15:29:13;4.15;;;1.48;;
41623;SDS011;27319;50.306;18.926;2022-07-25T15:32:19;1.92;;;1.30;;
41623;SDS011;27319;50.306;18.926;2022-07-25T15:35:20;3.13;;;1.63;;
41623;SDS011;27319;50.306;18.926;2022-07-25T15:38:21;2.58;;;1.33;;
41623;SDS011;27319;50.306;18.926;2022-07-25T15:41:22;4.88;;;1.55;;
41623;SDS011;27319;50.306;18.926;2022-07-25T15:44:23;2.22;;;1.30;;
41623;SDS011;27319;50.306;18.926;2022-07-25T15:47:24;2.03;;;1.27;;
41623;SDS011;27319;50.306;18.926;2022-07-25T15:50:25;4.35;;;1.10;;
41623;SDS011;27319;50.306;18.926;2022-07-25T15:53:29;1.92;;;1.20;;
41623;SDS011;27319;50.306;18.926;2022-07-25T15:56:36;5.35;;;1.33;;
41623;SDS011;27319;50.306;18.926;2022-07-25T15:59:38;4.25;;;1.63;;
41623;SDS011;27319;50.306;18.926;2022-07-25T16:02:42;2.47;;;1.38;;
41623;SDS011;27319;50.306;18.926;2022-07-25T16:05:44;3.63;;;1.45;;
41623;SDS011;27319;50.306;18.926;2022-07-25T16:08:45;2.28;;;1.40;;
41623;SDS011;27319;50.306;18.926;2022-07-25T16:11:47;4.88;;;1.38;;
41623;SDS011;27319;50.306;18.926;2022-07-25T16:14:48;4.13;;;1.60;;
41623;SDS011;27319;50.306;18.926;2022-07-25T16:17:50;2.13;;;1.40;;
41623;SDS011;27319;50.306;18.926;2022-07-25T16:20:53;3.80;;;1.77;;
41623;SDS011;27319;50.306;18.926;2022-07-25T16:23:53;3.50;;;1.65;;
41623;SDS011;27319;50.306;18.926;2022-07-25T16:26:55;2.25;;;1.48;;
41623;SDS011;27319;50.306;18.926;2022-07-25T16:29:56;2.38;;;1.67;;
41623;SDS011;27319;50.306;18.926;2022-07-25T16:32:57;2.42;;;1.30;;
41623;SDS011;27319;50.306;18.926;2022-07-25T16:35:58;1.40;;;1.23;;
41623;SDS011;27319;50.306;18.926;2022-07-25T16:38:59;1.85;;;1.42;;
41623;SDS011;27319;50.306;18.926;2022-07-25T16:42:01;3.58;;;1.52;;
41623;SDS011;27319;50.306;18.926;2022-07-25T16:45:02;1.70;;;1.50;;
41623;SDS011;27319;50.306;18.926;2022-07-25T16:48:06;2.08;;;1.42;;
41623;SDS011;27319;50.306;18.926;2022-07-25T16:51:07;1.63;;;1.30;;
41623;SDS011;27319;50.306;18.926;2022-07-25T16:54:11;5.60;;;1.60;;
41623;SDS011;27319;50.306;18.926;2022-07-25T16:57:13;4.72;;;1.58;;
41623;SDS011;27319;50.306;18.926;2022-07-25T17:00:16;2.60;;;1.52;;
41623;SDS011;27319;50.306;18.926;2022-07-25T17:03:17;4.68;;;2.60;;
41623;SDS011;27319;50.306;18.926;2022-07-25T17:06:18;5.22;;;1.50;;
41623;SDS011;27319;50.306;18.926;2022-07-25T17:09:20;4.47;;;2.33;;
41623;SDS011;27319;50.306;18.926;2022-07-25T17:12:21;5.90;;;2.22;;
41623;SDS011;27319;50.306;18.926;2022-07-25T17:15:22;3.53;;;2.00;;
41623;SDS011;27319;50.306;18.926;2022-07-25T17:18:23;5.57;;;2.22;;
41623;SDS011;27319;50.306;18.926;2022-07-25T17:21:24;2.80;;;1.60;;
41623;SDS011;27319;50.306;18.926;2022-07-25T17:24:25;2.65;;;1.80;;
41623;SDS011;27319;50.306;18.926;2022-07-25T17:27:26;3.22;;;2.05;;
41623;SDS011;27319;50.306;18.926;2022-07-25T17:30:26;6.68;;;1.88;;
41623;SDS011;27319;50.306;18.926;2022-07-25T17:33:27;4.72;;;1.63;;
41623;SDS011;27319;50.306;18.926;2022-07-25T17:36:28;2.75;;;1.60;;
41623;SDS011;27319;50.306;18.926;2022-07-25T17:39:31;3.47;;;1.83;;
41623;SDS011;27319;50.306;18.926;2022-07-25T17:42:32;5.40;;;1.77;;
41623;SDS011;27319;50.306;18.926;2022-07-25T17:45:33;3.60;;;1.77;;
41623;SDS011;27319;50.306;18.926;2022-07-25T17:48:34;6.38;;;1.77;;
41623;SDS011;27319;50.306;18.926;2022-07-25T17:51:35;5.70;;;2.05;;
41623;SDS011;27319;50.306;18.926;2022-07-25T17:54:35;3.22;;;1.90;;
41623;SDS011;27319;50.306;18.926;2022-07-25T17:57:40;8.07;;;2.05;;
41623;SDS011;27319;50.306;18.926;2022-07-25T18:00:44;5.55;;;2.03;;
41623;SDS011;27319;50.306;18.926;2022-07-25T18:03:58;4.47;;;2.58;;
41623;SDS011;27319;50.306;18.926;2022-07-25T18:06:59;5.00;;;2.53;;
41623;SDS011;27319;50.306;18.926;2022-07-25T18:10:00;3.47;;;2.10;;
41623;SDS011;27319;50.306;18.926;2022-07-25T18:13:01;7.05;;;2.25;;